Time;durP1;ratioP1;P1;durP2;ratioP2;P2;SDS_P1;SDS_P2;PMS_P1;PMS_P2;Temp;Humidity;BMP_temperature;BMP_pressure;BME280_temperature;BME280_humidity;BME280_pressure;Samples;Min_cycle;Max_cycle;Signal;HPM_P1;HPM_P2
2024/03/08 00:00:34;;;;;;;23.58;13.48;;;2.50;99.90;;;;;;4983683;28;20101;-56
2024/03/08 00:03:01;;;;;;;28.77;13.50;;;2.50;99.90;;;;;;4991769;28;20031;-53
2024/03/08 00:05:27;;;;;;;24.23;12.32;;;2.50;99.90;;;;;;4988667;28;20117;-58
2024/03/08 00:07:53;;;;;;;29.83;14.02;;;2.40;99.90;;;;;;4989637;28;20110;-53
2024/03/08 00:10:20;;;;;;;24.65;12.85;;;2.30;99.90;;;;;;4985413;28;20026;-53
2024/03/08 00:12:46;;;;;;;26.83;13.35;;;2.30;99.90;;;;;;4985321;28;20027;-56
2024/03/08 00:15:14;;;;;;;26.77;12.93;;;2.30;99.90;;;;;;4988677;28;20026;-55
2024/03/08 00:17:44;;;;;;;27.30;12.05;;;2.40;99.90;;;;;;4984095;28;20022;-57
2024/03/08 00:20:10;;;;;;;30.40;14.77;;;2.40;99.90;;;;;;4987031;28;20701;-56
2024/03/08 00:22:36;;;;;;;22.13;12.43;;;2.40;99.90;;;;;;4980083;28;20031;-56
2024/03/08 00:25:02;;;;;;;27.67;15.13;;;2.30;99.90;;;;;;4985607;28;20093;-56
2024/03/08 00:27:30;;;;;;;25.65;12.20;;;2.30;99.90;;;;;;4984869;28;20031;-56
2024/03/08 00:29:56;;;;;;;26.90;13.93;;;2.30;99.90;;;;;;4993657;28;20030;-55
2024/03/08 00:32:24;;;;;;;27.95;13.52;;;2.30;99.90;;;;;;4985174;28;20077;-58
2024/03/08 00:34:51;;;;;;;28.17;14.00;;;2.20;99.90;;;;;;4983183;28;20105;-56
2024/03/08 00:37:17;;;;;;;29.63;14.30;;;2.20;99.90;;;;;;4982269;28;20037;-55
2024/03/08 00:39:43;;;;;;;25.25;14.00;;;2.20;99.90;;;;;;4985967;28;20031;-54
2024/03/08 00:42:09;;;;;;;27.20;13.98;;;2.10;99.90;;;;;;4981947;28;20537;-55
2024/03/08 00:44:34;;;;;;;27.30;13.48;;;2.10;99.90;;;;;;4977797;28;20439;-53
2024/03/08 00:47:00;;;;;;;27.23;13.88;;;2.10;99.90;;;;;;4985467;28;20110;-52
2024/03/08 00:49:25;;;;;;;29.90;13.93;;;2.10;99.90;;;;;;4978224;28;20038;-54
2024/03/08 00:51:51;;;;;;;32.63;14.50;;;2.10;99.90;;;;;;4981812;28;20101;-55
2024/03/08 00:54:17;;;;;;;24.70;13.38;;;2.10;99.90;;;;;;4982180;28;20058;-56
2024/03/08 00:56:42;;;;;;;29.55;12.90;;;2.10;99.90;;;;;;4980216;28;20062;-56
2024/03/08 00:59:08;;;;;;;31.23;14.27;;;2.00;99.90;;;;;;4979351;28;20034;-56
2024/03/08 01:01:34;;;;;;;34.28;15.02;;;2.10;99.90;;;;;;4980178;28;20088;-56
2024/03/08 01:03:59;;;;;;;32.38;13.68;;;2.10;99.90;;;;;;4985666;28;20021;-55
2024/03/08 01:06:25;;;;;;;31.45;15.20;;;2.10;99.90;;;;;;4988048;28;20108;-56
2024/03/08 01:08:51;;;;;;;32.38;13.95;;;2.10;99.90;;;;;;4980177;28;20049;-59
2024/03/08 01:11:17;;;;;;;26.90;13.40;;;2.20;99.90;;;;;;4986964;28;20029;-57
2024/03/08 01:13:43;;;;;;;28.63;15.32;;;2.10;99.90;;;;;;4984784;28;20026;-54
2024/03/08 01:16:10;;;;;;;25.27;13.35;;;2.10;99.90;;;;;;4985551;28;20039;-58
2024/03/08 01:18:35;;;;;;;29.35;14.00;;;2.10;99.90;;;;;;4984638;28;20035;-59
2024/03/08 01:21:01;;;;;;;29.65;14.82;;;2.10;99.90;;;;;;4978522;28;20382;-55
2024/03/08 01:23:26;;;;;;;30.88;15.20;;;2.20;99.90;;;;;;4984614;28;20508;-57
2024/03/08 01:25:56;;;;;;;28.58;13.68;;;2.20;99.90;;;;;;4980139;28;20520;-56
2024/03/08 01:28:24;;;;;;;27.15;13.77;;;2.30;99.90;;;;;;4989362;28;20154;-52
2024/03/08 01:30:55;;;;;;;32.60;16.42;;;2.30;99.90;;;;;;4981202;28;20045;-58
2024/03/08 01:33:22;;;;;;;32.65;13.80;;;2.20;99.90;;;;;;4983060;28;20049;-53
2024/03/08 01:35:48;;;;;;;33.90;15.10;;;2.20;99.90;;;;;;4986674;28;20026;-58
2024/03/08 01:38:13;;;;;;;31.05;14.88;;;2.20;99.90;;;;;;4986456;28;20485;-55
2024/03/08 01:40:40;;;;;;;31.25;15.23;;;2.20;99.90;;;;;;4985022;28;20481;-56
2024/03/08 01:43:26;;;;;;;28.02;12.82;;;2.20;99.90;;;;;;4982263;28;20104;-56
2024/03/08 01:45:53;;;;;;;29.23;14.60;;;2.10;99.90;;;;;;4984928;28;20100;-55
2024/03/08 01:48:23;;;;;;;30.73;14.07;;;2.20;99.90;;;;;;4978745;28;20027;-53
2024/03/08 01:50:49;;;;;;;28.80;15.02;;;2.10;99.90;;;;;;4981506;28;20067;-58
2024/03/08 01:53:17;;;;;;;34.85;16.48;;;2.10;99.90;;;;;;4979971;28;20759;-54
2024/03/08 01:55:47;;;;;;;30.65;14.07;;;2.10;99.90;;;;;;4982070;28;20104;-56
2024/03/08 01:58:16;;;;;;;31.08;14.93;;;2.10;99.90;;;;;;4982080;28;20030;-57
2024/03/08 02:00:44;;;;;;;30.75;15.10;;;2.10;99.90;;;;;;4981624;28;20037;-56
2024/03/08 02:03:11;;;;;;;29.17;15.25;;;2.10;99.90;;;;;;4982801;28;20029;-56
2024/03/08 02:05:38;;;;;;;32.45;15.05;;;2.10;99.90;;;;;;4983813;28;20034;-56
2024/03/08 02:08:07;;;;;;;29.13;15.23;;;2.10;99.90;;;;;;4984286;28;20421;-57
2024/03/08 02:10:35;;;;;;;26.77;13.48;;;2.00;99.90;;;;;;4976554;28;20504;-53
2024/03/08 02:13:04;;;;;;;35.45;13.95;;;2.00;99.90;;;;;;4980564;28;20035;-55
2024/03/08 02:15:54;;;;;;;26.48;14.75;;;2.00;99.90;;;;;;4984070;28;20045;-58
2024/03/08 02:18:21;;;;;;;28.50;14.25;;;1.90;99.90;;;;;;4982704;28;20046;-54
2024/03/08 02:20:51;;;;;;;27.13;13.32;;;2.00;99.90;;;;;;4982691;28;20019;-53
2024/03/08 02:23:18;;;;;;;29.33;13.70;;;2.00;99.90;;;;;;4978018;28;20035;-52
2024/03/08 02:25:44;;;;;;;29.92;13.95;;;2.00;99.90;;;;;;4987989;28;20045;-54
2024/03/08 02:28:12;;;;;;;27.20;14.13;;;2.00;99.90;;;;;;4990341;28;20475;-58
2024/03/08 02:30:38;;;;;;;28.38;13.95;;;1.90;99.90;;;;;;4981788;28;20556;-55
2024/03/08 02:33:07;;;;;;;27.63;13.45;;;1.90;99.90;;;;;;4988731;28;20022;-57
2024/03/08 02:35:33;;;;;;;27.60;14.20;;;1.90;99.90;;;;;;4984541;28;20033;-56
2024/03/08 02:38:00;;;;;;;29.75;14.57;;;1.90;99.90;;;;;;4978406;28;20101;-55
2024/03/08 02:40:25;;;;;;;36.60;14.95;;;1.90;99.90;;;;;;4988601;28;20034;-53
2024/03/08 02:42:51;;;;;;;29.65;14.52;;;1.90;99.90;;;;;;4975831;28;20038;-60
2024/03/08 02:45:17;;;;;;;30.20;14.10;;;1.90;99.90;;;;;;4981394;28;20019;-55
2024/03/08 02:47:42;;;;;;;32.30;15.52;;;1.90;99.90;;;;;;4982645;28;20102;-57
2024/03/08 02:50:08;;;;;;;27.15;14.38;;;1.90;99.90;;;;;;4980231;28;20106;-57
2024/03/08 02:52:35;;;;;;;26.05;13.45;;;1.80;99.90;;;;;;4982531;28;20085;-56
2024/03/08 02:55:01;;;;;;;30.13;14.35;;;1.80;99.90;;;;;;4981847;28;20030;-55
2024/03/08 02:57:27;;;;;;;32.80;15.80;;;1.80;99.90;;;;;;4982065;28;20096;-56
2024/03/08 02:59:54;;;;;;;32.70;13.85;;;1.80;99.90;;;;;;4987354;28;20034;-53
2024/03/08 03:02:19;;;;;;;26.30;13.40;;;1.70;99.90;;;;;;4981975;28;20095;-57
2024/03/08 03:04:45;;;;;;;31.02;14.65;;;1.70;99.90;;;;;;4983356;28;20473;-53
2024/03/08 03:07:11;;;;;;;31.45;15.38;;;1.60;99.90;;;;;;4984669;28;20037;-53
2024/03/08 03:09:36;;;;;;;28.77;15.27;;;1.60;99.90;;;;;;4983152;28;20034;-52
2024/03/08 03:12:02;;;;;;;29.20;14.25;;;1.60;99.90;;;;;;4979180;28;20065;-54
2024/03/08 03:14:28;;;;;;;29.60;14.77;;;1.70;99.90;;;;;;4983549;28;20085;-59
2024/03/08 03:16:54;;;;;;;28.98;14.35;;;1.70;99.90;;;;;;4986248;28;20105;-57
2024/03/08 03:19:20;;;;;;;30.67;14.95;;;1.70;99.90;;;;;;4982389;28;20030;-58
2024/03/08 03:21:47;;;;;;;27.02;13.48;;;1.70;99.90;;;;;;4988827;28;20467;-56
2024/03/08 03:24:16;;;;;;;30.75;14.27;;;1.70;99.90;;;;;;4991442;28;20050;-52
2024/03/08 03:26:43;;;;;;;28.85;14.13;;;1.70;99.90;;;;;;4990348;28;20031;-52
2024/03/08 03:29:09;;;;;;;26.98;14.05;;;1.70;99.90;;;;;;4988099;28;20489;-55
2024/03/08 03:31:37;;;;;;;30.40;14.45;;;1.80;99.90;;;;;;4983081;28;20037;-55
2024/03/08 03:34:03;;;;;;;33.58;14.98;;;1.70;99.90;;;;;;4991351;28;20027;-53
2024/03/08 03:36:32;;;;;;;30.98;14.88;;;1.70;99.90;;;;;;4981739;28;20026;-53
2024/03/08 03:39:09;;;;;;;30.90;15.18;;;1.70;99.90;;;;;;4986330;28;20034;-55
2024/03/08 03:41:35;;;;;;;30.08;15.07;;;1.70;99.90;;;;;;4986916;28;20558;-57
2024/03/08 03:44:00;;;;;;;30.40;15.40;;;1.70;99.90;;;;;;5017912;23;20049;-85
2024/03/08 03:46:27;;;;;;;25.52;13.30;;;1.70;99.90;;;;;;4998922;28;20387;-84
2024/03/08 03:48:53;;;;;;;30.42;15.18;;;1.70;99.90;;;;;;5018052;28;20344;-83
2024/03/08 03:51:20;;;;;;;34.08;15.13;;;1.70;99.90;;;;;;5000519;28;20048;-84
2024/03/08 03:53:46;;;;;;;30.90;14.48;;;1.70;99.90;;;;;;5017818;28;20046;-83
2024/03/08 03:56:12;;;;;;;29.23;15.45;;;1.60;99.90;;;;;;5017626;28;20030;-83
2024/03/08 03:58:38;;;;;;;28.98;13.32;;;1.70;99.90;;;;;;4999304;28;20041;-83
2024/03/08 04:01:06;;;;;;;33.08;15.70;;;1.70;99.90;;;;;;4999116;28;20121;-85
2024/03/08 04:03:32;;;;;;;33.75;15.18;;;1.70;99.90;;;;;;4998432;28;20438;-83
2024/03/08 04:05:57;;;;;;;29.48;14.43;;;1.70;99.90;;;;;;4998444;28;20025;-85
2024/03/08 04:08:26;;;;;;;29.92;14.70;;;1.70;99.90;;;;;;4995652;28;20382;-83
2024/03/08 04:10:51;;;;;;;30.50;15.02;;;1.70;99.90;;;;;;5007169;28;20478;-83
2024/03/08 04:13:17;;;;;;;26.67;12.73;;;1.60;99.90;;;;;;4998176;28;20068;-83
2024/03/08 04:15:47;;;;;;;28.20;14.85;;;1.50;99.90;;;;;;4997740;28;20022;-83
2024/03/08 04:18:13;;;;;;;29.75;14.52;;;1.50;99.90;;;;;;4998304;28;20560;-83
2024/03/08 04:20:40;;;;;;;33.25;15.75;;;1.50;99.90;;;;;;4998730;28;20034;-82
2024/03/08 04:23:06;;;;;;;33.35;16.05;;;1.60;99.90;;;;;;5021247;28;20022;-84
2024/03/08 04:25:31;;;;;;;34.13;15.18;;;1.50;99.90;;;;;;5017040;28;20511;-83
2024/03/08 04:27:57;;;;;;;28.35;13.90;;;1.50;99.90;;;;;;4995914;28;20049;-84
2024/03/08 04:30:24;;;;;;;28.88;13.75;;;1.60;99.90;;;;;;4998198;28;20076;-82
2024/03/08 04:32:49;;;;;;;30.30;15.13;;;1.60;99.90;;;;;;4988938;28;20421;-83
2024/03/08 04:35:15;;;;;;;28.02;15.68;;;1.60;99.90;;;;;;4986498;28;20057;-81
2024/03/08 04:37:41;;;;;;;35.63;15.32;;;1.60;99.90;;;;;;4999029;28;20029;-84
2024/03/08 04:40:07;;;;;;;31.80;13.75;;;1.50;99.90;;;;;;4998733;28;20448;-84
2024/03/08 04:42:35;;;;;;;28.58;14.90;;;1.50;99.90;;;;;;4999021;28;20444;-83
2024/03/08 04:45:00;;;;;;;30.77;15.20;;;1.50;99.90;;;;;;4997062;28;20037;-83
2024/03/08 04:47:26;;;;;;;35.35;16.13;;;1.40;99.90;;;;;;4978768;28;20022;-83
2024/03/08 04:49:52;;;;;;;28.50;13.93;;;1.40;99.90;;;;;;4996745;28;20030;-84
2024/03/08 04:52:17;;;;;;;35.78;16.08;;;1.40;99.90;;;;;;4978606;28;20030;-83
2024/03/08 04:54:44;;;;;;;32.33;15.55;;;1.40;99.90;;;;;;4979341;28;20527;-82
2024/03/08 04:57:10;;;;;;;34.33;15.13;;;1.40;99.90;;;;;;4995733;28;20034;-81
2024/03/08 04:59:36;;;;;;;31.52;15.00;;;1.40;99.90;;;;;;4994233;28;20506;-81
2024/03/08 05:02:02;;;;;;;31.15;15.55;;;1.40;99.90;;;;;;4996945;28;20062;-85
2024/03/08 05:04:28;;;;;;;30.55;14.88;;;1.40;99.90;;;;;;4989529;28;20151;-86
2024/03/08 05:06:54;;;;;;;31.90;15.05;;;1.40;99.90;;;;;;4978569;28;20132;-86
2024/03/08 05:09:20;;;;;;;35.85;16.20;;;1.40;99.90;;;;;;4977630;28;20484;-85
2024/03/08 05:11:47;;;;;;;32.28;16.00;;;1.40;99.90;;;;;;4978966;28;20033;-85
2024/03/08 05:14:19;;;;;;;30.45;13.98;;;1.40;99.90;;;;;;4997870;28;20539;-85
2024/03/08 05:16:49;;;;;;;33.55;15.82;;;1.40;99.90;;;;;;5014949;28;20026;-83
2024/03/08 05:19:19;;;;;;;34.03;16.35;;;1.40;99.90;;;;;;4997441;28;20073;-84
2024/03/08 05:21:45;;;;;;;39.72;16.38;;;1.30;99.90;;;;;;4997276;28;20065;-83
2024/03/08 05:24:11;;;;;;;42.20;17.33;;;1.40;99.90;;;;;;4996972;28;20026;-84
2024/03/08 05:26:39;;;;;;;32.08;16.20;;;1.40;99.90;;;;;;4996248;28;20484;-85
2024/03/08 05:29:05;;;;;;;28.80;15.90;;;1.40;99.90;;;;;;4996749;28;20029;-84
2024/03/08 05:31:45;;;;;;;35.90;16.33;;;1.40;99.90;;;;;;5014352;28;20089;-84
2024/03/08 05:34:11;;;;;;;31.13;15.60;;;1.30;99.90;;;;;;4997221;28;20049;-85
2024/03/08 05:36:36;;;;;;;34.78;16.50;;;1.30;99.90;;;;;;4997898;28;20030;-85
2024/03/08 05:39:02;;;;;;;32.33;15.93;;;1.40;99.90;;;;;;5002036;28;20049;-82
2024/03/08 05:41:27;;;;;;;31.92;15.25;;;1.40;99.90;;;;;;5002023;28;20092;-85
2024/03/08 05:43:53;;;;;;;38.25;16.13;;;1.30;99.90;;;;;;5002396;28;20030;-85
2024/03/08 05:46:19;;;;;;;36.85;16.75;;;1.30;99.90;;;;;;5020018;28;20036;-83
2024/03/08 05:48:45;;;;;;;37.92;17.58;;;1.30;99.90;;;;;;5020319;28;20029;-83
2024/03/08 05:51:10;;;;;;;36.90;17.92;;;1.30;99.90;;;;;;5002483;28;20018;-85
2024/03/08 05:53:36;;;;;;;31.63;16.90;;;1.30;99.90;;;;;;5002677;28;20249;-86
2024/03/08 05:56:02;;;;;;;37.13;16.95;;;1.30;99.90;;;;;;5001590;28;20041;-84
2024/03/08 05:58:29;;;;;;;34.08;16.10;;;1.40;99.90;;;;;;4983649;28;20037;-85
2024/03/08 06:00:56;;;;;;;35.47;15.77;;;1.30;99.90;;;;;;4983421;28;20092;-83
2024/03/08 06:03:21;;;;;;;37.13;16.00;;;1.40;99.90;;;;;;4993090;28;20041;-85
2024/03/08 06:05:48;;;;;;;37.92;16.15;;;1.30;99.90;;;;;;4994909;28;20023;-82
2024/03/08 06:08:14;;;;;;;32.45;15.82;;;1.30;99.90;;;;;;5003602;28;20022;-85
2024/03/08 06:10:40;;;;;;;34.38;16.60;;;1.40;99.90;;;;;;5020527;28;20022;-84
2024/03/08 06:13:06;;;;;;;36.75;16.77;;;1.40;99.90;;;;;;5001605;28;20029;-85
2024/03/08 06:15:32;;;;;;;35.10;15.93;;;1.50;99.90;;;;;;5019983;28;20048;-86
2024/03/08 06:17:57;;;;;;;33.47;15.07;;;1.50;99.90;;;;;;5001388;28;20021;-85
2024/03/08 06:20:26;;;;;;;27.55;14.90;;;1.50;99.90;;;;;;5019183;28;20713;-84
2024/03/08 06:22:52;;;;;;;35.42;16.27;;;1.50;99.90;;;;;;5002517;28;20030;-85
2024/03/08 06:25:17;;;;;;;32.90;14.88;;;1.50;99.90;;;;;;5001565;28;20029;-85
2024/03/08 06:27:45;;;;;;;36.55;17.60;;;1.50;99.90;;;;;;5020644;28;20072;-84
2024/03/08 06:30:11;;;;;;;38.40;15.52;;;1.60;99.90;;;;;;5002765;28;20022;-85
2024/03/08 06:32:37;;;;;;;36.38;16.05;;;1.60;99.90;;;;;;5001648;28;20112;-82
2024/03/08 06:35:07;;;;;;;28.58;15.32;;;1.70;99.90;;;;;;5020048;28;20053;-85
2024/03/08 06:37:35;;;;;;;34.33;16.08;;;1.80;99.90;;;;;;5020153;28;20034;-83
2024/03/08 06:40:01;;;;;;;35.08;16.20;;;1.90;99.90;;;;;;5002530;28;20077;-82
2024/03/08 06:42:28;;;;;;;32.60;15.35;;;1.90;99.90;;;;;;5002117;28;20076;-83
2024/03/08 06:44:55;;;;;;;34.92;17.27;;;2.00;99.90;;;;;;5000019;28;20376;-84
2024/03/08 06:47:22;;;;;;;37.70;15.82;;;2.00;99.90;;;;;;5020017;28;20025;-85
2024/03/08 06:49:49;;;;;;;31.02;15.45;;;2.10;99.90;;;;;;5002240;28;20027;-86
2024/03/08 06:52:15;;;;;;;34.42;16.67;;;2.10;99.90;;;;;;5019683;28;20161;-84
2024/03/08 06:54:40;;;;;;;33.20;16.52;;;2.20;99.90;;;;;;5002906;28;20022;-85
2024/03/08 06:57:06;;;;;;;30.92;15.25;;;2.30;99.90;;;;;;5004971;28;20030;-86
2024/03/08 06:59:32;;;;;;;30.52;15.32;;;2.40;99.90;;;;;;5006643;28;20034;-84
2024/03/08 07:01:59;;;;;;;29.33;14.63;;;2.50;99.90;;;;;;5023420;28;20034;-82
2024/03/08 07:04:29;;;;;;;33.60;15.45;;;2.60;99.90;;;;;;5022648;28;20392;-84
2024/03/08 07:06:57;;;;;;;30.23;14.50;;;2.70;99.90;;;;;;5004961;28;20036;-86
2024/03/08 07:09:26;;;;;;;33.95;16.50;;;2.80;99.90;;;;;;5004792;28;20030;-85
2024/03/08 07:11:54;;;;;;;31.67;16.63;;;2.90;99.90;;;;;;5022248;28;20030;-86
2024/03/08 07:14:24;;;;;;;31.92;16.15;;;3.00;99.90;;;;;;5020646;28;20057;-86
2024/03/08 07:16:51;;;;;;;28.00;14.45;;;3.40;99.90;;;;;;5004910;28;20166;-84
2024/03/08 07:19:17;;;;;;;30.85;14.85;;;3.80;99.90;;;;;;5004449;28;20034;-84
2024/03/08 07:21:47;;;;;;;32.40;15.48;;;3.80;99.90;;;;;;5003885;28;20109;-83
2024/03/08 07:24:27;;;;;;;26.05;13.80;;;3.80;99.90;;;;;;5021334;28;20060;-82
2024/03/08 07:26:55;;;;;;;33.33;15.07;;;3.70;99.90;;;;;;5004304;28;20049;-85
2024/03/08 07:29:21;;;;;;;31.77;15.02;;;3.70;99.90;;;;;;5005095;28;20024;-82
2024/03/08 07:34:31;;;;;;;31.60;13.82;;;3.60;99.90;;;;;;5004954;28;20040;-85
2024/03/08 07:36:58;;;;;;;33.45;14.90;;;3.70;99.90;;;;;;5004590;28;20040;-83
2024/03/08 07:39:24;;;;;;;31.20;15.23;;;3.70;99.90;;;;;;5004165;28;20033;-83
2024/03/08 07:41:52;;;;;;;33.83;15.80;;;3.70;99.90;;;;;;5003932;28;20034;-84
2024/03/08 07:44:18;;;;;;;30.02;14.40;;;3.80;99.90;;;;;;5021534;28;20415;-84
2024/03/08 07:46:44;;;;;;;29.08;14.85;;;3.80;99.90;;;;;;5004117;28;20029;-85
2024/03/08 07:49:11;;;;;;;29.65;14.30;;;3.90;99.90;;;;;;5003968;28;20048;-84
2024/03/08 07:51:37;;;;;;;29.33;14.43;;;3.90;99.90;;;;;;5022063;28;20107;-86
2024/03/08 07:54:09;;;;;;;30.58;14.40;;;4.00;99.90;;;;;;5004264;28;20030;-87
2024/03/08 07:56:36;;;;;;;33.05;15.05;;;4.00;99.90;;;;;;5004443;28;20034;-83
2024/03/08 07:59:03;;;;;;;31.85;15.60;;;4.00;99.90;;;;;;5021597;28;20025;-85
2024/03/08 08:01:30;;;;;;;28.55;14.20;;;4.00;99.90;;;;;;5021629;28;20033;-85
2024/03/08 08:03:56;;;;;;;31.92;14.30;;;4.10;99.90;;;;;;5002905;28;20368;-85
2024/03/08 08:06:22;;;;;;;33.95;14.68;;;4.20;99.90;;;;;;5004213;28;20026;-86
2024/03/08 08:08:48;;;;;;;28.15;15.30;;;4.30;99.90;;;;;;5002117;28;20114;-86
2024/03/08 08:11:16;;;;;;;25.60;13.90;;;4.30;99.90;;;;;;5002962;28;20100;-85
2024/03/08 08:13:43;;;;;;;28.77;14.93;;;4.30;99.90;;;;;;4987940;28;20096;-85
2024/03/08 08:16:10;;;;;;;29.13;14.43;;;4.40;99.90;;;;;;5002695;28;20121;-84
2024/03/08 08:18:36;;;;;;;26.52;13.75;;;4.40;99.90;;;;;;5019992;28;20048;-83
2024/03/08 08:21:06;;;;;;;32.35;14.50;;;4.50;99.90;;;;;;5003182;28;20022;-85
2024/03/08 08:23:34;;;;;;;31.83;13.55;;;4.60;99.90;;;;;;5003850;28;20029;-84
2024/03/08 08:26:01;;;;;;;29.17;13.70;;;4.60;99.90;;;;;;5021077;28;20467;-84
2024/03/08 08:28:27;;;;;;;28.70;14.90;;;4.70;99.90;;;;;;5002991;28;20046;-85
2024/03/08 08:30:52;;;;;;;29.67;14.55;;;4.70;99.90;;;;;;5022535;23;20041;-54
2024/03/08 08:33:18;;;;;;;28.08;13.57;;;4.80;99.90;;;;;;5030820;28;20510;-56
2024/03/08 08:35:43;;;;;;;30.10;15.13;;;4.90;99.90;;;;;;5016762;28;20381;-55
2024/03/08 08:38:09;;;;;;;30.15;15.60;;;5.00;99.90;;;;;;5018432;28;20049;-57
2024/03/08 08:40:36;;;;;;;25.15;12.68;;;5.10;99.90;;;;;;5001349;28;20499;-56
2024/03/08 08:43:05;;;;;;;30.55;14.95;;;5.20;99.90;;;;;;5017494;28;20053;-57
2024/03/08 08:45:31;;;;;;;28.27;13.98;;;5.10;99.90;;;;;;5017113;28;20078;-56
2024/03/08 08:47:59;;;;;;;29.38;13.70;;;5.20;99.90;;;;;;5018660;28;20029;-54
2024/03/08 08:50:26;;;;;;;24.25;13.23;;;5.30;99.90;;;;;;5019449;28;21321;-56
2024/03/08 08:52:52;;;;;;;26.65;13.35;;;5.40;99.90;;;;;;5017446;28;20108;-55
2024/03/08 08:55:20;;;;;;;26.13;13.75;;;5.40;99.90;;;;;;5019876;28;20041;-56
2024/03/08 08:57:50;;;;;;;25.08;12.38;;;5.50;99.90;;;;;;5017628;28;20040;-57
2024/03/08 09:00:16;;;;;;;27.25;13.00;;;5.50;99.90;;;;;;5018130;28;20057;-57
2024/03/08 09:02:42;;;;;;;25.75;12.85;;;5.60;99.90;;;;;;5018436;28;20034;-55
2024/03/08 09:05:08;;;;;;;25.20;12.55;;;5.80;99.90;;;;;;5015792;28;20040;-56
2024/03/08 09:07:33;;;;;;;25.98;13.43;;;5.90;99.90;;;;;;5016461;28;20044;-58
2024/03/08 09:10:00;;;;;;;26.60;12.88;;;6.00;99.90;;;;;;5016872;28;20034;-55
2024/03/08 09:12:26;;;;;;;28.90;12.82;;;6.20;99.90;;;;;;5016438;28;20140;-57
2024/03/08 09:14:51;;;;;;;23.48;12.57;;;6.30;99.90;;;;;;5012237;28;20140;-56
2024/03/08 09:17:20;;;;;;;26.88;12.65;;;6.40;99.90;;;;;;5016378;28;20116;-57
2024/03/08 09:19:49;;;;;;;20.65;10.95;;;6.40;99.90;;;;;;5017766;28;20037;-58
2024/03/08 09:22:15;;;;;;;20.83;10.57;;;6.90;99.90;;;;;;5001955;28;20519;-58
2024/03/08 09:24:41;;;;;;;22.77;11.10;;;7.60;99.90;;;;;;5017305;28;20032;-56
2024/03/08 09:27:09;;;;;;;22.50;11.85;;;8.00;99.90;;;;;;5017876;28;20025;-58
2024/03/08 09:29:35;;;;;;;22.02;11.35;;;8.70;99.90;;;;;;5015361;28;20076;-56
2024/03/08 09:32:01;;;;;;;23.02;10.98;;;9.10;99.90;;;;;;5017890;28;20041;-55
2024/03/08 09:34:26;;;;;;;18.52;10.90;;;9.10;99.90;;;;;;5015392;28;20033;-57
2024/03/08 09:36:52;;;;;;;23.90;11.63;;;9.60;99.90;;;;;;5017801;28;20026;-55
2024/03/08 09:39:20;;;;;;;20.77;11.57;;;9.90;99.60;;;;;;5016065;28;20427;-56
2024/03/08 09:41:49;;;;;;;18.65;10.70;;;9.90;99.00;;;;;;5017679;28;20033;-54
2024/03/08 09:44:19;;;;;;;18.92;10.15;;;10.30;99.50;;;;;;5016798;28;21468;-59
2024/03/08 09:46:47;;;;;;;22.05;11.23;;;10.60;98.50;;;;;;5015719;28;20084;-59
2024/03/08 09:49:13;;;;;;;19.48;10.55;;;10.60;98.00;;;;;;5016753;28;20029;-57
2024/03/08 09:51:40;;;;;;;24.52;12.20;;;10.90;98.10;;;;;;5017162;28;20044;-55
2024/03/08 09:54:06;;;;;;;20.15;10.88;;;10.70;97.00;;;;;;5016894;28;20025;-55
2024/03/08 09:56:36;;;;;;;18.70;10.65;;;10.80;97.40;;;;;;5016383;28;20041;-58
2024/03/08 10:01:38;;;;;;;20.10;11.82;;;10.70;96.90;;;;;;5016464;28;20172;-53
2024/03/08 10:04:04;;;;;;;19.80;10.30;;;10.70;96.40;;;;;;5015745;28;20040;-56
2024/03/08 10:06:30;;;;;;;18.65;10.10;;;10.60;97.40;;;;;;5015038;28;20029;-57
2024/03/08 10:08:57;;;;;;;23.48;10.75;;;10.70;97.20;;;;;;5017640;28;20476;-56
2024/03/08 10:11:22;;;;;;;18.27;8.80;;;10.60;96.90;;;;;;5018039;28;20030;-56
2024/03/08 10:13:49;;;;;;;14.30;8.40;;;10.90;96.50;;;;;;5044812;23;21820;-53
2024/03/08 10:16:17;;;;;;;17.73;9.65;;;10.50;96.30;;;;;;5034244;28;20393;-55
2024/03/08 10:18:42;;;;;;;19.40;9.90;;;10.50;96.20;;;;;;5035781;28;20144;-57
2024/03/08 10:21:13;;;;;;;17.88;10.25;;;10.60;97.10;;;;;;5032566;28;20120;-55
2024/03/08 10:23:39;;;;;;;19.67;10.35;;;10.40;97.30;;;;;;5034124;28;20110;-57
2024/03/08 10:26:15;;;;;;;17.42;9.77;;;10.30;98.00;;;;;;5035859;28;20033;-54
2024/03/08 10:28:47;;;;;;;20.27;8.73;;;10.20;97.00;;;;;;5036785;28;20013;-57
2024/03/08 10:31:14;;;;;;;15.57;7.93;;;10.10;96.60;;;;;;5036187;28;20052;-58
2024/03/08 10:33:41;;;;;;;18.63;8.68;;;10.00;97.10;;;;;;5037248;28;20042;-58
2024/03/08 10:36:08;;;;;;;15.77;7.60;;;9.70;97.30;;;;;;5035850;28;20041;-54
2024/03/08 10:38:36;;;;;;;17.52;7.93;;;9.60;96.80;;;;;;5037792;28;20024;-56
2024/03/08 10:41:04;;;;;;;14.90;8.05;;;9.60;96.80;;;;;;5037820;28;20071;-55
2024/03/08 10:43:38;;;;;;;16.85;8.23;;;9.40;96.80;;;;;;5037749;28;20033;-55
2024/03/08 10:46:22;;;;;;;15.90;7.65;;;9.30;96.90;;;;;;5037147;28;21106;-56
2024/03/08 10:48:49;;;;;;;17.75;8.23;;;9.40;97.80;;;;;;5036253;28;20135;-57
2024/03/08 10:51:15;;;;;;;17.58;8.32;;;9.40;97.20;;;;;;5035476;28;20478;-54
2024/03/08 10:53:42;;;;;;;14.90;7.78;;;9.40;97.20;;;;;;5035833;28;20111;-57
2024/03/08 10:56:09;;;;;;;12.65;7.05;;;9.40;97.30;;;;;;5036104;28;20116;-57
2024/03/08 10:58:37;;;;;;;13.63;7.47;;;9.40;96.60;;;;;;5037725;28;20391;-54
2024/03/08 11:01:03;;;;;;;14.82;8.10;;;9.40;97.70;;;;;;5034307;28;20021;-57
2024/03/08 11:03:42;;;;;;;14.77;7.95;;;9.40;96.80;;;;;;5020019;28;20025;-56
2024/03/08 11:06:09;;;;;;;12.38;7.50;;;9.50;97.20;;;;;;5034843;28;20063;-55
2024/03/08 11:08:36;;;;;;;14.43;7.47;;;9.60;96.90;;;;;;5035639;28;20025;-53
2024/03/08 11:11:02;;;;;;;15.80;8.23;;;9.70;97.50;;;;;;5036132;28;20034;-56
2024/03/08 11:13:42;;;;;;;14.85;7.57;;;9.70;96.90;;;;;;5038141;28;20441;-54
2024/03/08 11:16:11;;;;;;;15.30;6.93;;;9.80;97.10;;;;;;5034071;28;20411;-58
2024/03/08 11:18:37;;;;;;;13.77;6.82;;;9.90;97.00;;;;;;5036109;28;20112;-56
2024/03/08 11:21:06;;;;;;;11.27;7.07;;;9.80;95.40;;;;;;5036884;28;20398;-58
2024/03/08 11:23:33;;;;;;;14.73;7.15;;;9.80;96.80;;;;;;5036724;28;20017;-56
2024/03/08 11:25:59;;;;;;;12.57;6.95;;;9.80;96.50;;;;;;5036088;28;20037;-57
2024/03/08 11:28:26;;;;;;;11.95;6.55;;;9.90;95.80;;;;;;5036781;28;20111;-57
2024/03/08 11:31:00;;;;;;;12.07;7.10;;;9.90;95.80;;;;;;5034923;28;20044;-58
2024/03/08 11:33:31;;;;;;;11.60;6.85;;;10.00;96.80;;;;;;5036733;28;20159;-57
2024/03/08 11:36:16;;;;;;;10.35;6.45;;;10.10;96.40;;;;;;5037093;28;20021;-59
2024/03/08 11:38:48;;;;;;;17.08;7.53;;;10.20;95.70;;;;;;5037126;28;20025;-56
2024/03/08 11:41:20;;;;;;;12.40;6.50;;;10.20;96.10;;;;;;5034561;28;20040;-56
2024/03/08 11:43:47;;;;;;;15.35;6.63;;;10.20;96.20;;;;;;5039031;28;20041;-54
2024/03/08 11:46:14;;;;;;;12.75;6.45;;;10.30;95.90;;;;;;5041181;28;20029;-54
2024/03/08 11:48:43;;;;;;;11.27;6.43;;;10.20;94.60;;;;;;5040294;28;20037;-57
2024/03/08 11:51:11;;;;;;;14.48;6.78;;;10.10;95.20;;;;;;5037403;28;20029;-57
2024/03/08 11:53:37;;;;;;;11.57;6.55;;;10.20;95.50;;;;;;5038597;28;20040;-53
2024/03/08 11:56:08;;;;;;;12.25;6.82;;;10.10;94.90;;;;;;5038217;28;21271;-57
2024/03/08 11:58:36;;;;;;;12.43;6.18;;;10.00;95.30;;;;;;5037517;28;20029;-56
2024/03/08 12:01:06;;;;;;;13.23;6.85;;;10.10;95.70;;;;;;5038181;28;20095;-57
2024/03/08 12:03:35;;;;;;;13.38;6.72;;;10.10;94.80;;;;;;5037039;28;20033;-53
2024/03/08 12:06:03;;;;;;;14.75;7.10;;;10.00;95.50;;;;;;5039542;28;20036;-55
2024/03/08 12:08:31;;;;;;;15.02;7.32;;;10.00;95.90;;;;;;5038694;28;20127;-54
2024/03/08 12:10:59;;;;;;;12.75;7.22;;;10.00;95.20;;;;;;5039706;28;20047;-54
2024/03/08 12:13:31;;;;;;;14.73;7.53;;;10.00;95.40;;;;;;5036921;28;20726;-58
2024/03/08 12:15:58;;;;;;;14.90;6.63;;;10.00;95.20;;;;;;5026809;28;20068;-57
2024/03/08 12:18:26;;;;;;;13.48;6.82;;;10.00;95.10;;;;;;5040469;28;20553;-57
2024/03/08 12:20:52;;;;;;;11.27;6.60;;;9.90;95.70;;;;;;5039018;28;20084;-56
2024/03/08 12:23:18;;;;;;;12.05;6.32;;;10.00;95.50;;;;;;5039282;28;20421;-56
2024/03/08 12:25:44;;;;;;;12.13;6.95;;;10.00;95.80;;;;;;5038041;28;20052;-57
2024/03/08 12:28:10;;;;;;;11.95;6.88;;;10.10;95.90;;;;;;5039327;28;20108;-56
2024/03/08 12:30:52;;;;;;;10.68;6.10;;;10.10;95.20;;;;;;5037126;28;20037;-56
2024/03/08 12:33:18;;;;;;;14.13;6.90;;;10.10;95.90;;;;;;5039104;28;20026;-55
2024/03/08 12:35:53;;;;;;;12.48;7.15;;;10.20;95.70;;;;;;5037844;28;20039;-57
2024/03/08 12:38:24;;;;;;;12.20;6.22;;;10.10;95.60;;;;;;5039034;28;20036;-56
2024/03/08 12:40:49;;;;;;;11.98;6.47;;;10.20;95.30;;;;;;5036328;28;20033;-55
2024/03/08 12:43:15;;;;;;;12.38;6.45;;;10.20;95.50;;;;;;5039102;28;20552;-53